Time;durP1;ratioP1;P1;durP2;ratioP2;P2;SDS_P1;SDS_P2;PMS_P1;PMS_P2;Temp;Humidity;BMP_temperature;BMP_pressure;BME280_temperature;BME280_humidity;BME280_pressure;Samples;Min_cycle;Max_cycle;Signal;HPM_P1;HPM_P2
2021/10/28 00:13:32;;;;;;;19.70;7.45;;;;;;;;;;6222536;28;20050;-85
2021/10/28 00:16:34;;;;;;;21.52;7.57;;;;;;;;;;6214524;28;20050;-83
2021/10/28 00:19:37;;;;;;;34.75;8.27;;;;;;;;;;6233412;28;20050;-83
2021/10/28 00:22:39;;;;;;;;;;;;;;;;;;6227140;28;20055;-82
2021/10/28 00:25:41;;;;;;;31.80;8.23;;;;;;;;;;6244596;28;20064;-83
2021/10/28 00:28:44;;;;;;;25.33;8.63;;;;;;;;;;6221874;28;20129;-83
2021/10/28 00:31:47;;;;;;;34.83;8.23;;;;;;;;;;6228487;28;20056;-83
2021/10/28 00:34:49;;;;;;;14.57;6.70;;;;;;;;;;6200518;28;20056;-83
2021/10/28 00:37:50;;;;;;;40.90;7.82;;;;;;;;;;6219671;28;20479;-85
2021/10/28 00:40:53;;;;;;;35.67;8.10;;;;;;;;;;6223728;28;20074;-84
2021/10/28 00:43:57;;;;;;;22.52;7.43;;;;;;;;;;6236344;28;20049;-83
2021/10/28 00:46:58;;;;;;;15.55;6.82;;;;;;;;;;6214704;28;20168;-84
2021/10/28 00:50:01;;;;;;;23.98;7.57;;;;;;;;;;6219115;28;20045;-83
2021/10/28 00:53:03;;;;;;;31.92;8.23;;;;;;;;;;6239961;28;20037;-83
2021/10/28 00:56:06;;;;;;;13.98;7.22;;;;;;;;;;6256849;28;20056;-84
2021/10/28 00:59:09;;;;;;;26.75;8.45;;;;;;;;;;6219066;28;20167;-83
2021/10/28 01:02:11;;;;;;;19.17;7.70;;;;;;;;;;6226776;28;20088;-84
2021/10/28 01:05:13;;;;;;;32.15;7.70;;;;;;;;;;6229442;28;20045;-83
2021/10/28 01:08:16;;;;;;;18.90;7.20;;;;;;;;;;6247338;28;20463;-83
2021/10/28 01:11:18;;;;;;;14.82;6.75;;;;;;;;;;6245865;28;20061;-83
2021/10/28 01:14:21;;;;;;;36.50;10.18;;;;;;;;;;6241127;28;20043;-85
2021/10/28 01:17:23;;;;;;;;;;;;;;;;;;6248422;28;20041;-83
2021/10/28 01:20:25;;;;;;;14.68;7.18;;;;;;;;;;6229187;28;20007;-83
2021/10/28 01:23:27;;;;;;;14.75;6.20;;;;;;;;;;6244711;28;20049;-83
2021/10/28 01:26:28;;;;;;;20.38;6.63;;;;;;;;;;6229150;28;20055;-83
2021/10/28 01:29:31;;;;;;;26.48;6.97;;;;;;;;;;6230638;28;20052;-84
2021/10/28 01:32:32;;;;;;;26.48;6.82;;;;;;;;;;6250742;28;20059;-82
2021/10/28 01:35:34;;;;;;;21.17;6.40;;;;;;;;;;6225913;28;20056;-84
2021/10/28 01:38:41;;;;;;;14.25;6.68;;;;;;;;;;6207865;28;20050;-83
2021/10/28 01:41:43;;;;;;;15.05;5.55;;;;;;;;;;6209701;28;20034;-83
2021/10/28 01:44:45;;;;;;;18.77;5.30;;;;;;;;;;6201955;28;20041;-83
2021/10/28 01:47:48;;;;;;;8.52;3.65;;;;;;;;;;6211614;28;20073;-84
2021/10/28 01:50:50;;;;;;;13.60;5.43;;;;;;;;;;6210553;28;20050;-84
2021/10/28 01:53:52;;;;;;;11.80;4.15;;;;;;;;;;6201859;28;20041;-83
2021/10/28 01:56:54;;;;;;;16.33;4.85;;;;;;;;;;6223801;28;20045;-85
2021/10/28 01:59:57;;;;;;;9.90;4.82;;;;;;;;;;6224382;28;20042;-84
2021/10/28 02:02:58;;;;;;;19.75;5.22;;;;;;;;;;6219024;28;20045;-83
2021/10/28 02:06:02;;;;;;;20.75;4.50;;;;;;;;;;6202685;28;20049;-84
2021/10/28 02:09:04;;;;;;;19.17;4.47;;;;;;;;;;6222902;28;20164;-84
2021/10/28 02:12:06;;;;;;;19.35;5.32;;;;;;;;;;6224733;28;20045;-83
2021/10/28 02:15:10;;;;;;;17.35;5.32;;;;;;;;;;6204555;28;20034;-84
2021/10/28 02:18:12;;;;;;;10.38;4.63;;;;;;;;;;6229856;28;20105;-84
2021/10/28 02:21:14;;;;;;;18.80;5.00;;;;;;;;;;6235200;28;20129;-84
2021/10/28 02:24:15;;;;;;;13.90;4.05;;;;;;;;;;6244310;28;20045;-83
2021/10/28 02:27:18;;;;;;;11.75;4.65;;;;;;;;;;6242846;28;20053;-83
2021/10/28 02:30:20;;;;;;;13.35;4.97;;;;;;;;;;6222544;28;20069;-83
2021/10/28 02:33:22;;;;;;;15.43;4.38;;;;;;;;;;6246277;28;20057;-84
2021/10/28 02:36:24;;;;;;;12.40;4.00;;;;;;;;;;6232794;28;20049;-85
2021/10/28 02:39:25;;;;;;;11.63;4.30;;;;;;;;;;6227562;28;20041;-84
2021/10/28 02:42:27;;;;;;;15.75;3.97;;;;;;;;;;6233852;28;20066;-85
2021/10/28 02:45:28;;;;;;;10.77;4.28;;;;;;;;;;6228550;28;20033;-83
2021/10/28 02:48:30;;;;;;;25.05;4.53;;;;;;;;;;6205422;28;20054;-83
2021/10/28 02:51:32;;;;;;;19.30;4.28;;;;;;;;;;6228818;28;20065;-84
2021/10/28 02:54:34;;;;;;;35.97;4.78;;;;;;;;;;6249084;28;20171;-84
2021/10/28 02:57:40;;;;;;;12.00;4.17;;;;;;;;;;6245142;28;20048;-84
2021/10/28 03:00:41;;;;;;;19.35;4.90;;;;;;;;;;6262874;28;20526;-83
2021/10/28 03:03:43;;;;;;;25.15;4.55;;;;;;;;;;6244422;28;20045;-84
2021/10/28 03:06:46;;;;;;;14.68;5.15;;;;;;;;;;6237646;28;20105;-85
2021/10/28 03:09:47;;;;;;;17.27;4.75;;;;;;;;;;6244375;28;20067;-83
2021/10/28 03:12:52;;;;;;;16.23;5.13;;;;;;;;;;6237359;28;20207;-83
2021/10/28 03:15:54;;;;;;;25.80;5.00;;;;;;;;;;6233626;28;20107;-83
2021/10/28 03:25:38;;;;;;;30.50;5.15;;;;;;;;;;6220834;28;20044;-85
2021/10/28 03:28:40;;;;;;;22.27;4.88;;;;;;;;;;6224578;28;20053;-83
2021/10/28 03:31:41;;;;;;;13.77;5.18;;;;;;;;;;6225865;28;20168;-84
2021/10/28 03:34:44;;;;;;;20.23;4.50;;;;;;;;;;6240472;28;20076;-83
2021/10/28 03:37:52;;;;;;;27.50;5.33;;;;;;;;;;6243703;28;20056;-84
2021/10/28 03:44:27;;;;;;;19.85;4.93;;;;;;;;;;6245526;28;20091;-84
2021/10/28 04:00:11;;;;;;;31.38;6.10;;;;;;;;;;6231661;28;20037;-83
2021/10/28 04:29:47;;;;;;;16.75;5.32;;;;;;;;;;6223809;28;20449;-83
2021/10/28 04:32:50;;;;;;;31.40;6.25;;;;;;;;;;6239357;28;20104;-83
2021/10/28 04:35:52;;;;;;;;;;;;;;;;;;6194550;28;20038;-83
2021/10/28 04:38:53;;;;;;;15.40;5.43;;;;;;;;;;6191129;28;19928;-83
2021/10/28 04:41:55;;;;;;;30.48;5.03;;;;;;;;;;6191556;28;20042;-83
2021/10/28 04:44:57;;;;;;;35.50;6.07;;;;;;;;;;6210113;28;20042;-83
2021/10/28 04:47:58;;;;;;;26.45;5.45;;;;;;;;;;6218542;28;20052;-83
2021/10/28 04:51:00;;;;;;;26.40;6.30;;;;;;;;;;6218222;28;20136;-84
2021/10/28 04:54:02;;;;;;;38.78;7.00;;;;;;;;;;6198986;28;20133;-83
2021/10/28 04:57:05;;;;;;;39.88;7.18;;;;;;;;;;6212918;28;20518;-83
2021/10/28 05:00:07;;;;;;;62.78;7.32;;;;;;;;;;6232598;28;20051;-83
2021/10/28 05:03:09;;;;;;;21.87;6.90;;;;;;;;;;6242750;28;20038;-83
2021/10/28 05:06:12;;;;;;;46.85;8.00;;;;;;;;;;6216749;28;20046;-83
2021/10/28 05:09:18;;;;;;;40.13;6.35;;;;;;;;;;6216239;28;20566;-83
2021/10/28 05:12:19;;;;;;;41.08;7.32;;;;;;;;;;6217469;28;20403;-83
2021/10/28 05:15:21;;;;;;;44.85;6.60;;;;;;;;;;6202677;28;20046;-83
2021/10/28 05:18:24;;;;;;;32.60;6.43;;;;;;;;;;6216833;28;20045;-82
2021/10/28 05:21:26;;;;;;;37.20;6.25;;;;;;;;;;6215799;28;20120;-83
2021/10/28 05:24:27;;;;;;;34.65;6.07;;;;;;;;;;6215985;28;20034;-83
2021/10/28 05:27:29;;;;;;;30.45;6.72;;;;;;;;;;6202422;28;20046;-84
2021/10/28 05:30:35;;;;;;;25.67;5.82;;;;;;;;;;6227818;28;20074;-84
2021/10/28 05:33:37;;;;;;;54.78;7.55;;;;;;;;;;6197417;28;20049;-84
2021/10/28 05:36:39;;;;;;;62.22;13.27;;;;;;;;;;6219461;28;20419;-81
2021/10/28 05:39:40;;;;;;;53.45;8.57;;;;;;;;;;6220801;28;20056;-83
2021/10/28 05:42:58;;;;;;;39.63;8.57;;;;;;;;;;6212293;28;20080;-83
2021/10/28 05:45:59;;;;;;;150.32;53.83;;;;;;;;;;6219789;28;20042;-83
2021/10/28 05:49:01;;;;;;;55.83;13.23;;;;;;;;;;6219865;28;20053;-83
2021/10/28 05:52:03;;;;;;;51.70;11.45;;;;;;;;;;6223585;28;20495;-83
2021/10/28 05:55:05;;;;;;;52.47;16.88;;;;;;;;;;6244230;28;20406;-84
2021/10/28 05:58:07;;;;;;;72.57;18.25;;;;;;;;;;6232790;28;20049;-84
2021/10/28 06:01:08;;;;;;;21.50;8.77;;;;;;;;;;6227012;28;20045;-84
2021/10/28 06:04:10;;;;;;;27.45;11.00;;;;;;;;;;6232008;28;20045;-84
2021/10/28 06:07:11;;;;;;;35.08;7.85;;;;;;;;;;6222782;28;20117;-84
2021/10/28 06:10:16;;;;;;;42.90;7.75;;;;;;;;;;6243988;28;20041;-82
2021/10/28 06:13:18;;;;;;;62.17;9.70;;;;;;;;;;6232809;28;20428;-84
2021/10/28 06:16:21;;;;;;;51.45;9.65;;;;;;;;;;6221119;28;20130;-84
2021/10/28 06:19:23;;;;;;;35.55;7.35;;;;;;;;;;6215837;28;20188;-83
2021/10/28 06:22:25;;;;;;;24.83;7.10;;;;;;;;;;6242537;28;20052;-83
2021/10/28 06:25:27;;;;;;;26.55;7.55;;;;;;;;;;6245378;28;20975;-82
2021/10/28 06:28:29;;;;;;;29.20;6.90;;;;;;;;;;6230532;28;20503;-86
2021/10/28 06:31:30;;;;;;;29.23;7.68;;;;;;;;;;6237156;28;20124;-83
2021/10/28 06:34:39;;;;;;;30.98;7.35;;;;;;;;;;6233465;28;20038;-83
2021/10/28 06:37:46;;;;;;;34.03;8.20;;;;;;;;;;6239928;28;20037;-84
2021/10/28 06:40:48;;;;;;;43.95;8.90;;;;;;;;;;6250129;28;20060;-82
2021/10/28 06:43:49;;;;;;;82.70;15.82;;;;;;;;;;6240052;28;20038;-84
2021/10/28 06:46:51;;;;;;;35.70;9.90;;;;;;;;;;6233833;28;20045;-83
2021/10/28 06:49:53;;;;;;;160.07;47.58;;;;;;;;;;6234900;28;20068;-82
2021/10/28 06:53:22;;;;;;;47.20;11.07;;;;;;;;;;6248762;28;20053;-82
2021/10/28 07:03:13;;;;;;;53.33;12.10;;;;;;;;;;6269083;28;20124;-84
2021/10/28 07:06:23;;;;;;;47.95;12.73;;;;;;;;;;6223362;28;20173;-85
2021/10/28 07:15:44;;;;;;;38.75;12.20;;;;;;;;;;6224807;28;20056;-83
2021/10/28 08:30:56;;;;;;;27.63;10.85;;;;;;;;;;6213278;28;20076;-81
2021/10/28 08:33:59;;;;;;;;;;;;;;;;;;6204104;28;20057;-80
2021/10/28 08:37:09;;;;;;;25.13;9.65;;;;;;;;;;6244676;28;19921;-82
2021/10/28 08:40:14;;;;;;;22.05;9.55;;;;;;;;;;6238965;28;20142;-81
2021/10/28 08:43:18;;;;;;;38.10;18.33;;;;;;;;;;6204289;28;20054;-83
2021/10/28 08:46:25;;;;;;;29.83;13.20;;;;;;;;;;6218632;28;20046;-82
2021/10/28 08:49:34;;;;;;;51.20;25.27;;;;;;;;;;6216524;28;20100;-81
2021/10/28 08:53:12;;;;;;;26.52;12.20;;;;;;;;;;6245247;28;20050;-81
2021/10/28 08:56:31;;;;;;;65.47;31.05;;;;;;;;;;6245922;28;20780;-82
2021/10/28 08:59:42;;;;;;;29.67;13.02;;;;;;;;;;6219316;28;20141;-81
2021/10/28 09:27:21;;;;;;;29.45;14.38;;;;;;;;;;6207865;28;20054;-83
2021/10/28 09:30:42;;;;;;;18.55;9.80;;;;;;;;;;6223555;28;20046;-83
2021/10/28 09:47:16;;;;;;;14.55;8.18;;;;;;;;;;6232677;28;20126;-81
2021/10/28 09:50:30;;;;;;;15.95;8.40;;;;;;;;;;6225616;28;20128;-80
2021/10/28 09:54:00;;;;;;;19.98;10.10;;;;;;;;;;6221520;28;20038;-84
2021/10/28 10:00:34;;;;;;;18.05;9.52;;;;;;;;;;6216705;28;20179;-82
2021/10/28 10:03:47;;;;;;;18.10;9.87;;;;;;;;;;6219188;28;20053;-82
2021/10/28 10:06:49;;;;;;;17.20;9.20;;;;;;;;;;6219704;28;20981;-80
2021/10/28 10:09:51;;;;;;;18.23;10.23;;;;;;;;;;6218623;28;20045;-80
2021/10/28 10:12:54;;;;;;;18.38;8.95;;;;;;;;;;6217540;28;20046;-83
2021/10/28 10:16:00;;;;;;;16.70;9.05;;;;;;;;;;6252014;28;20052;-83
2021/10/28 10:19:02;;;;;;;16.58;9.27;;;;;;;;;;6257153;28;20045;-81
2021/10/28 11:03:18;;;;;;;17.58;10.27;;;;;;;;;;6243491;28;20068;-83
2021/10/28 12:21:34;;;;;;;32.33;16.23;;;;;;;;;;6241918;28;20391;-82
2021/10/28 12:45:32;;;;;;;33.72;16.35;;;;;;;;;;6235218;28;20069;-81
2021/10/28 13:51:40;;;;;;;42.80;19.00;;;;;;;;;;6224973;28;20041;-80
2021/10/28 13:55:16;;;;;;;49.65;19.58;;;;;;;;;;6224150;28;20149;-81
2021/10/28 13:58:16;;;;;;;46.10;19.08;;;;;;;;;;6220119;28;21090;-81
2021/10/28 14:15:11;;;;;;;46.70;18.23;;;;;;;;;;6240314;28;20129;-79
2021/10/28 14:38:12;;;;;;;43.58;18.95;;;;;;;;;;6226038;28;20419;-81
2021/10/28 15:41:10;;;;;;;52.70;19.92;;;;;;;;;;6211706;28;20500;-82
2021/10/28 15:51:43;;;;;;;43.88;19.17;;;;;;;;;;6194368;28;20074;-82
2021/10/28 16:24:02;;;;;;;58.17;22.13;;;;;;;;;;6237432;28;20530;-81
2021/10/28 16:27:05;;;;;;;52.80;21.10;;;;;;;;;;6215542;28;20415;-81
2021/10/28 16:30:08;;;;;;;51.38;21.30;;;;;;;;;;6209733;28;20117;-81
2021/10/28 16:33:10;;;;;;;60.42;22.35;;;;;;;;;;6214971;28;20042;-81
2021/10/28 16:36:11;;;;;;;55.42;21.17;;;;;;;;;;6225214;28;20060;-81
2021/10/28 16:39:14;;;;;;;56.97;19.48;;;;;;;;;;6242299;28;20121;-82
2021/10/28 16:42:16;;;;;;;57.95;22.17;;;;;;;;;;6231377;28;20479;-81
2021/10/28 16:45:17;;;;;;;57.80;21.85;;;;;;;;;;6214546;28;20042;-82
2021/10/28 16:48:19;;;;;;;58.80;21.60;;;;;;;;;;6216482;28;20048;-82
2021/10/28 16:51:21;;;;;;;54.08;21.85;;;;;;;;;;6219923;28;20077;-83
2021/10/28 16:54:23;;;;;;;54.35;20.92;;;;;;;;;;6200595;28;20889;-82
2021/10/28 16:57:24;;;;;;;52.22;21.33;;;;;;;;;;6210197;28;20052;-82
2021/10/28 17:00:27;;;;;;;53.65;23.00;;;;;;;;;;6204483;28;20060;-82
2021/10/28 17:03:33;;;;;;;62.15;24.48;;;;;;;;;;6197044;28;20064;-81
2021/10/28 17:06:35;;;;;;;61.10;23.75;;;;;;;;;;6225935;28;20128;-82
2021/10/28 17:09:36;;;;;;;54.00;20.90;;;;;;;;;;6222178;28;20406;-80
2021/10/28 17:12:40;;;;;;;59.38;22.67;;;;;;;;;;6222268;28;20149;-82
2021/10/28 17:15:41;;;;;;;56.30;21.50;;;;;;;;;;6210275;28;20060;-81
2021/10/28 17:18:43;;;;;;;53.70;21.40;;;;;;;;;;6207409;28;20073;-82
2021/10/28 17:21:46;;;;;;;52.55;19.98;;;;;;;;;;6194760;28;20048;-83
2021/10/28 17:24:49;;;;;;;47.10;20.02;;;;;;;;;;6224699;28;20053;-83
2021/10/28 17:27:51;;;;;;;;;;;;;;;;;;6215761;28;20049;-83
2021/10/28 17:30:53;;;;;;;55.00;21.27;;;;;;;;;;6220350;28;20011;-82
2021/10/28 17:33:56;;;;;;;49.50;20.83;;;;;;;;;;6218233;28;20100;-82
2021/10/28 17:36:58;;;;;;;46.65;18.60;;;;;;;;;;6219134;28;20120;-80
2021/10/28 17:39:59;;;;;;;52.17;20.08;;;;;;;;;;6242382;28;20049;-82
2021/10/28 17:43:01;;;;;;;55.97;19.75;;;;;;;;;;6219928;28;20068;-81
2021/10/28 17:46:06;;;;;;;50.72;19.77;;;;;;;;;;6213880;28;20101;-82
2021/10/28 17:49:08;;;;;;;55.60;19.88;;;;;;;;;;6217464;28;20049;-82
2021/10/28 17:52:10;;;;;;;52.92;21.00;;;;;;;;;;6225174;28;20072;-81
2021/10/28 17:55:12;;;;;;;59.50;24.23;;;;;;;;;;6217214;28;20046;-81
2021/10/28 17:58:14;;;;;;;51.58;20.80;;;;;;;;;;6214767;28;20041;-81
2021/10/28 18:01:19;;;;;;;50.75;21.15;;;;;;;;;;6213239;28;20488;-80
2021/10/28 18:04:22;;;;;;;52.90;19.27;;;;;;;;;;6213382;28;20129;-81
2021/10/28 18:07:28;;;;;;;55.38;21.17;;;;;;;;;;6215471;28;20058;-81
2021/10/28 18:10:30;;;;;;;51.22;20.60;;;;;;;;;;6215066;28;20048;-81
2021/10/28 18:13:32;;;;;;;56.08;20.17;;;;;;;;;;6205595;28;20198;-81
2021/10/28 18:16:33;;;;;;;55.30;23.08;;;;;;;;;;6214116;28;20049;-81
2021/10/28 18:19:35;;;;;;;59.58;23.77;;;;;;;;;;6220084;28;20546;-81
2021/10/28 18:22:39;;;;;;;55.72;22.20;;;;;;;;;;6213738;28;20423;-81
2021/10/28 18:25:41;;;;;;;63.42;27.65;;;;;;;;;;6215835;28;20046;-81
2021/10/28 18:28:43;;;;;;;58.28;23.52;;;;;;;;;;6212684;28;20104;-82
2021/10/28 18:31:46;;;;;;;54.70;21.50;;;;;;;;;;6218714;28;20343;-82
2021/10/28 18:34:48;;;;;;;46.78;19.95;;;;;;;;;;6191630;28;20064;-82
2021/10/28 18:37:50;;;;;;;52.50;21.30;;;;;;;;;;6198456;28;20050;-82
2021/10/28 18:40:51;;;;;;;51.83;19.92;;;;;;;;;;6217413;28;20046;-82
2021/10/28 18:43:53;;;;;;;49.75;19.90;;;;;;;;;;6209705;28;20048;-81
2021/10/28 18:46:56;;;;;;;53.17;20.70;;;;;;;;;;6215259;28;20395;-81
2021/10/28 18:49:58;;;;;;;54.08;19.00;;;;;;;;;;6198845;28;20065;-82
2021/10/28 18:53:00;;;;;;;53.72;21.73;;;;;;;;;;6238676;28;20052;-84
2021/10/28 18:56:02;;;;;;;49.53;20.70;;;;;;;;;;6245318;28;20044;-83
2021/10/28 18:59:04;;;;;;;51.03;19.02;;;;;;;;;;6225381;28;20046;-82
2021/10/28 19:02:06;;;;;;;55.10;21.25;;;;;;;;;;6225738;28;20072;-82
2021/10/28 19:05:09;;;;;;;51.90;21.43;;;;;;;;;;6228322;28;20165;-83
2021/10/28 19:08:16;;;;;;;46.00;17.92;;;;;;;;;;6211697;28;20517;-84
2021/10/28 19:11:18;;;;;;;49.13;19.40;;;;;;;;;;6215807;28;20106;-83
2021/10/28 19:14:19;;;;;;;45.97;18.23;;;;;;;;;;6216696;28;20109;-81
2021/10/28 19:17:21;;;;;;;49.55;18.65;;;;;;;;;;6220931;28;20049;-81
2021/10/28 19:20:26;;;;;;;56.88;21.45;;;;;;;;;;6223733;28;20152;-82
2021/10/28 19:23:27;;;;;;;49.35;18.00;;;;;;;;;;6241573;28;20042;-82
2021/10/28 19:26:29;;;;;;;45.33;17.77;;;;;;;;;;6220737;28;20046;-80
2021/10/28 19:29:36;;;;;;;52.00;17.35;;;;;;;;;;6230993;28;20053;-82
2021/10/28 19:32:38;;;;;;;51.35;18.25;;;;;;;;;;6211216;28;20132;-82
2021/10/28 19:35:43;;;;;;;52.72;18.85;;;;;;;;;;6225026;28;20052;-82
2021/10/28 19:38:59;;;;;;;50.75;18.95;;;;;;;;;;6243212;28;20042;-82
2021/10/28 19:48:26;;;;;;;52.30;21.45;;;;;;;;;;6241024;28;20044;-82
2021/10/28 19:51:28;;;;;;;51.58;18.98;;;;;;;;;;6218693;28;20394;-83
2021/10/28 19:54:29;;;;;;;49.83;18.63;;;;;;;;;;6209471;28;20388;-84
2021/10/28 19:57:35;;;;;;;44.30;17.73;;;;;;;;;;6240860;28;20095;-82
2021/10/28 20:00:49;;;;;;;107.40;35.70;;;;;;;;;;6220872;28;20037;-81
2021/10/28 20:20:18;;;;;;;41.25;15.65;;;;;;;;;;6218286;28;20046;-82
2021/10/28 20:23:19;;;;;;;54.72;18.83;;;;;;;;;;6239992;28;20435;-82
2021/10/28 20:26:22;;;;;;;51.28;18.23;;;;;;;;;;6243111;28;20046;-82
2021/10/28 20:29:24;;;;;;;53.90;19.57;;;;;;;;;;6232443;28;20043;-82
2021/10/28 20:32:26;;;;;;;56.42;18.95;;;;;;;;;;6239612;28;20423;-82
2021/10/28 20:35:54;;;;;;;52.53;18.40;;;;;;;;;;6239828;28;20053;-82
2021/10/28 20:39:05;;;;;;;54.50;19.13;;;;;;;;;;6217919;28;20109;-81
2021/10/28 20:42:09;;;;;;;63.22;23.88;;;;;;;;;;6215519;28;20061;-81
2021/10/28 20:45:14;;;;;;;67.00;19.58;;;;;;;;;;6232032;28;20187;-81
2021/10/28 20:48:15;;;;;;;57.60;19.50;;;;;;;;;;6241916;28;20037;-82
2021/10/28 20:51:17;;;;;;;64.60;20.50;;;;;;;;;;6241807;28;20045;-81
2021/10/28 20:54:23;;;;;;;60.30;21.58;;;;;;;;;;6244279;28;20038;-81
2021/10/28 20:57:30;;;;;;;64.75;21.63;;;;;;;;;;6247230;28;20124;-82
2021/10/28 21:00:31;;;;;;;65.85;21.77;;;;;;;;;;6249704;28;20135;-81
2021/10/28 21:03:33;;;;;;;67.18;21.45;;;;;;;;;;6247854;28;20052;-82
2021/10/28 21:06:38;;;;;;;72.72;20.88;;;;;;;;;;6232451;28;20132;-82
2021/10/28 21:09:39;;;;;;;66.82;19.45;;;;;;;;;;6250151;28;20065;-83
2021/10/28 21:12:41;;;;;;;64.60;20.67;;;;;;;;;;6246910;28;20080;-82
2021/10/28 21:15:43;;;;;;;67.47;21.25;;;;;;;;;;6240133;28;20045;-81
2021/10/28 21:18:45;;;;;;;75.25;22.10;;;;;;;;;;6251996;28;20056;-82
2021/10/28 21:21:51;;;;;;;69.10;21.08;;;;;;;;;;6225247;28;20058;-81
2021/10/28 21:24:52;;;;;;;70.18;20.35;;;;;;;;;;6224182;28;20046;-82
2021/10/28 21:27:54;;;;;;;71.03;22.33;;;;;;;;;;6224756;28;20507;-81
2021/10/28 21:31:13;;;;;;;68.22;20.65;;;;;;;;;;6239566;28;20042;-81
2021/10/28 21:34:15;;;;;;;77.05;22.75;;;;;;;;;;6242561;28;20049;-81
2021/10/28 21:37:18;;;;;;;74.65;24.38;;;;;;;;;;6222136;28;20052;-81
2021/10/28 21:40:19;;;;;;;70.45;21.73;;;;;;;;;;6246889;28;20136;-81
2021/10/28 21:43:22;;;;;;;72.15;23.45;;;;;;;;;;6243978;28;20046;-82
2021/10/28 21:46:24;;;;;;;72.82;23.55;;;;;;;;;;6219694;28;20053;-82
2021/10/28 21:49:26;;;;;;;77.15;23.02;;;;;;;;;;6222186;28;20137;-82
2021/10/28 21:52:31;;;;;;;71.32;22.27;;;;;;;;;;6232052;28;20413;-81
2021/10/28 22:25:23;;;;;;;73.32;24.55;;;;;;;;;;6224685;28;20114;-83
2021/10/28 22:28:24;;;;;;;79.50;24.85;;;;;;;;;;6222316;28;20042;-82
2021/10/28 22:31:26;;;;;;;70.72;22.38;;;;;;;;;;6221740;28;20754;-83
2021/10/28 22:34:28;;;;;;;73.55;22.98;;;;;;;;;;6219707;28;20045;-83
2021/10/28 22:37:45;;;;;;;61.53;22.05;;;;;;;;;;6230497;28;20527;-83
2021/10/28 22:40:49;;;;;;;70.55;22.52;;;;;;;;;;6223809;28;20048;-82
2021/10/28 22:43:52;;;;;;;73.53;21.70;;;;;;;;;;6219787;28;20132;-82
2021/10/28 22:46:54;;;;;;;71.43;23.08;;;;;;;;;;6223511;28;20129;-82
2021/10/28 22:49:56;;;;;;;69.18;21.10;;;;;;;;;;6196448;28;20039;-83
2021/10/28 22:53:02;;;;;;;77.25;23.77;;;;;;;;;;6196744;28;20057;-82
2021/10/28 22:56:04;;;;;;;68.78;24.30;;;;;;;;;;6195888;28;20052;-82
2021/10/28 22:59:06;;;;;;;78.10;24.83;;;;;;;;;;6215004;28;20550;-83
2021/10/28 23:11:44;;;;;;;70.00;23.00;;;;;;;;;;6223908;28;20117;-83
2021/10/28 23:14:59;;;;;;;80.60;25.05;;;;;;;;;;6219319;28;20058;-81
2021/10/28 23:21:21;;;;;;;67.50;24.35;;;;;;;;;;6225918;28;20052;-83
2021/10/28 23:24:23;;;;;;;74.88;23.40;;;;;;;;;;6246288;28;20124;-82
2021/10/28 23:27:29;;;;;;;69.53;23.25;;;;;;;;;;6229377;28;20044;-83
2021/10/28 23:30:31;;;;;;;66.75;23.13;;;;;;;;;;6216029;28;20042;-82
2021/10/28 23:33:34;;;;;;;70.88;22.85;;;;;;;;;;6218776;28;20115;-82
2021/10/28 23:36:35;;;;;;;65.18;21.77;;;;;;;;;;6236209;28;20152;-83
2021/10/28 23:39:37;;;;;;;66.57;23.02;;;;;;;;;;6246993;28;20052;-84
2021/10/28 23:42:38;;;;;;;61.72;22.00;;;;;;;;;;6246312;28;20041;-83
2021/10/28 23:45:40;;;;;;;67.20;22.48;;;;;;;;;;6221371;28;20623;-84
2021/10/28 23:48:42;;;;;;;71.95;23.00;;;;;;;;;;6218371;28;20060;-82
2021/10/28 23:51:44;;;;;;;72.22;23.50;;;;;;;;;;6213613;28;20121;-83
2021/10/28 23:54:45;;;;;;;72.40;23.48;;;;;;;;;;6220431;28;20041;-82
2021/10/28 23:57:47;;;;;;;69.85;23.40;;;;;;;;;;6218931;28;20122;-83
